GRZ575 Details

Departure: Sand Point Airport (PASD)
Arrival: Cold Bay Airport (PACD)
Route: HBT2 HBT G12 ELF


Current Weather Information
PASD 230656Z AUTO 27019G27KT 10SM RA FEW032 OVC043 06/03 A2872 RMK AO2 PK WND 27027/0647 SLPNO P0001 T00610033
PACD 230707Z AUTO 29021KT 8SM RA FEW017 SCT022 OVC029 06/04 A2889 RMK AO2 PK WND 30027/0702 P0001 T00610044 TSNO